Time;durP1;ratioP1;P1;durP2;ratioP2;P2;SDS_P1;SDS_P2;PMS_P1;PMS_P2;Temp;Humidity;BMP_temperature;BMP_pressure;BME280_temperature;BME280_humidity;BME280_pressure;Samples;Min_cycle;Max_cycle;Signal;HPM_P1;HPM_P2
2022/03/08 01:35:12;;;;;;;16.20;10.65;;;;;;;0.24;39.92;97152.75;5551374;23;20059;-78
2022/03/08 01:37:39;;;;;;;16.67;10.43;;;;;;;0.20;39.93;97148.75;4956179;29;20106;-77
2022/03/08 01:40:09;;;;;;;14.13;9.30;;;;;;;0.17;40.00;97136.91;4957183;29;20047;-79
2022/03/08 01:42:37;;;;;;;11.65;7.85;;;;;;;0.14;40.09;97128.63;4957266;29;20437;-79
2022/03/08 01:45:05;;;;;;;11.70;8.52;;;;;;;0.14;40.19;97131.19;4956941;29;20054;-80
2022/03/08 01:47:33;;;;;;;12.38;8.30;;;;;;;0.12;40.25;97123.59;4956533;29;20056;-79
2022/03/08 01:50:00;;;;;;;11.48;8.10;;;;;;;0.11;40.38;97121.13;4956275;28;20051;-79
2022/03/08 01:52:29;;;;;;;11.65;7.75;;;;;;;0.11;40.47;97119.41;4957830;29;20047;-78
2022/03/08 01:54:57;;;;;;;12.43;8.60;;;;;;;0.14;40.47;97113.22;4957280;29;20058;-79
2022/03/08 01:57:25;;;;;;;11.40;8.23;;;;;;;0.16;40.63;97111.38;4956414;29;20058;-79
2022/03/08 01:59:53;;;;;;;10.50;8.50;;;;;;;0.14;40.64;97110.66;4955646;29;20047;-79
2022/03/08 02:02:22;;;;;;;16.63;8.57;;;;;;;0.13;40.74;97104.72;4956594;29;20051;-78
2022/03/08 02:04:50;;;;;;;12.30;8.60;;;;;;;0.13;40.61;97111.56;4956649;29;20102;-79
2022/03/08 02:07:18;;;;;;;12.88;8.88;;;;;;;0.14;40.76;97113.22;4955836;29;20074;-79
2022/03/08 02:09:47;;;;;;;13.20;9.40;;;;;;;0.16;40.89;97116.50;4956318;29;20063;-79
2022/03/08 02:12:14;;;;;;;10.07;7.82;;;;;;;0.14;40.71;97115.78;4956816;29;20047;-79
2022/03/08 02:14:42;;;;;;;11.63;8.48;;;;;;;0.09;40.58;97110.13;4956549;29;20055;-79
2022/03/08 02:17:10;;;;;;;11.30;8.10;;;;;;;0.08;40.80;97113.63;4956024;29;20066;-79
2022/03/08 02:19:38;;;;;;;12.40;8.25;;;;;;;0.06;40.81;97110.34;4956354;29;20082;-79
2022/03/08 02:22:07;;;;;;;12.23;8.45;;;;;;;0.02;40.88;97109.72;4959187;29;20082;-80
2022/03/08 02:24:34;;;;;;;21.00;7.88;;;;;;;-0.01;41.07;97104.81;4957782;29;20058;-79
2022/03/08 02:27:02;;;;;;;11.25;7.22;;;;;;;-0.04;41.32;97105.84;4956576;29;20074;-79
2022/03/08 02:29:29;;;;;;;11.60;8.55;;;;;;;-0.04;40.99;97100.72;4956347;29;20136;-79
2022/03/08 02:31:57;;;;;;;10.40;7.38;;;;;;;-0.02;41.05;97091.19;4956066;29;20047;-79
2022/03/08 02:34:25;;;;;;;13.18;8.32;;;;;;;0.02;41.17;97096.09;4956508;29;20561;-79
2022/03/08 02:37:00;;;;;;;13.35;8.20;;;;;;;0.07;41.38;97100.00;4969703;29;20051;-80
2022/03/08 02:39:29;;;;;;;11.77;8.52;;;;;;;0.10;41.00;97091.28;4970296;29;20055;-79
2022/03/08 02:41:57;;;;;;;11.45;7.43;;;;;;;0.12;40.86;97094.56;4967779;29;20048;-79
2022/03/08 02:44:24;;;;;;;9.70;7.40;;;;;;;0.16;41.19;97091.69;4957546;29;20071;-79
2022/03/08 02:46:52;;;;;;;10.85;7.53;;;;;;;0.24;41.47;97086.03;4955004;29;20058;-79
2022/03/08 02:49:20;;;;;;;9.60;7.47;;;;;;;0.30;41.17;97090.72;4955453;29;20418;-79
2022/03/08 02:51:48;;;;;;;10.57;7.60;;;;;;;0.30;41.13;97083.03;4955793;29;20058;-79
2022/03/08 02:54:15;;;;;;;12.50;8.45;;;;;;;0.34;41.41;97089.59;4955494;29;20062;-79
2022/03/08 02:56:44;;;;;;;13.05;8.52;;;;;;;0.38;41.68;97091.00;4955016;29;20046;-79
2022/03/08 02:59:11;;;;;;;10.77;8.07;;;;;;;0.43;41.04;97087.31;4955676;29;20051;-79
2022/03/08 03:01:39;;;;;;;10.45;8.38;;;;;;;0.40;40.93;97084.03;4954505;28;20058;-79
2022/03/08 03:04:07;;;;;;;11.80;8.32;;;;;;;0.34;40.79;97076.75;4956691;29;20075;-79
2022/03/08 03:06:35;;;;;;;10.50;7.60;;;;;;;0.28;41.00;97081.50;4956170;29;20051;-79
2022/03/08 03:09:03;;;;;;;11.02;7.93;;;;;;;0.24;40.88;97083.47;4968552;29;20055;-80
2022/03/08 03:11:31;;;;;;;11.57;8.13;;;;;;;0.22;40.86;97084.47;4974614;29;20103;-79
2022/03/08 03:14:00;;;;;;;10.80;7.47;;;;;;;0.21;40.98;97078.53;4959934;29;20051;-79
2022/03/08 03:16:28;;;;;;;10.77;7.72;;;;;;;0.20;40.93;97071.78;4955039;29;20066;-79
2022/03/08 03:18:55;;;;;;;9.40;7.45;;;;;;;0.20;41.19;97076.91;4963324;29;20138;-80
2022/03/08 03:21:23;;;;;;;11.60;7.82;;;;;;;0.22;41.20;97077.63;4969408;29;20047;-79
2022/03/08 03:23:50;;;;;;;11.48;7.65;;;;;;;0.20;41.14;97079.47;4955499;29;20054;-79
2022/03/08 03:26:18;;;;;;;10.13;7.80;;;;;;;0.19;41.32;97078.63;4954280;29;20051;-79
2022/03/08 03:28:45;;;;;;;10.65;7.55;;;;;;;0.18;41.14;97079.56;4955104;29;20059;-78
2022/03/08 03:31:14;;;;;;;11.55;8.18;;;;;;;0.16;41.44;97085.72;4955111;29;20066;-78
2022/03/08 03:33:42;;;;;;;10.00;7.63;;;;;;;0.13;41.43;97080.78;4954993;29;20047;-79
2022/03/08 03:36:10;;;;;;;11.48;8.77;;;;;;;0.09;41.21;97074.22;4954788;29;20185;-79
2022/03/08 03:38:37;;;;;;;11.05;8.13;;;;;;;0.06;41.47;97071.88;4956076;29;20126;-79
2022/03/08 03:41:05;;;;;;;11.85;8.02;;;;;;;0.05;41.72;97073.63;4956196;29;20054;-79
2022/03/08 03:43:32;;;;;;;10.60;8.13;;;;;;;0.06;41.58;97070.13;4956525;29;20066;-78
2022/03/08 03:46:00;;;;;;;10.23;7.70;;;;;;;0.07;41.60;97076.91;4955311;29;20406;-78
2022/03/08 03:48:29;;;;;;;10.45;8.20;;;;;;;0.08;42.02;97081.09;4955502;29;20050;-79
2022/03/08 03:50:57;;;;;;;9.95;7.63;;;;;;;0.13;41.94;97073.09;4955336;29;20070;-78
2022/03/08 03:53:24;;;;;;;10.60;7.82;;;;;;;0.13;41.67;97067.97;4954887;29;20055;-78
2022/03/08 03:55:53;;;;;;;11.63;8.05;;;;;;;0.11;41.61;97072.38;4953771;29;20058;-78
2022/03/08 03:58:20;;;;;;;14.73;8.70;;;;;;;0.10;41.82;97075.88;4955189;29;20110;-78
2022/03/08 04:00:48;;;;;;;10.95;7.85;;;;;;;0.07;41.68;97065.84;4954671;29;20494;-78
2022/03/08 04:03:18;;;;;;;12.10;8.55;;;;;;;0.04;41.91;97066.03;4954816;29;20055;-78
2022/03/08 04:05:48;;;;;;;11.70;8.57;;;;;;;0.03;41.93;97074.66;4954370;29;20066;-78
2022/03/08 04:08:20;;;;;;;11.38;8.02;;;;;;;-0.01;41.86;97069.72;4954570;29;20054;-78
2022/03/08 04:10:47;;;;;;;10.27;8.02;;;;;;;-0.01;41.84;97074.03;4955100;29;20062;-77
2022/03/08 04:13:15;;;;;;;9.07;7.70;;;;;;;-0.03;42.20;97076.72;4953869;29;20540;-78
2022/03/08 04:15:43;;;;;;;9.98;7.53;;;;;;;-0.02;42.13;97070.66;4954195;29;20517;-80
2022/03/08 04:18:11;;;;;;;14.15;8.25;;;;;;;0.01;42.02;97076.50;4954320;29;20341;-78
2022/03/08 04:20:39;;;;;;;10.40;7.65;;;;;;;0.04;42.13;97076.28;4954513;29;20059;-78
2022/03/08 04:23:08;;;;;;;11.75;8.32;;;;;;;0.07;42.06;97070.97;4954370;29;20059;-77
2022/03/08 04:25:35;;;;;;;13.55;8.25;;;;;;;0.07;41.89;97065.84;4954010;29;20501;-77
2022/03/08 04:28:03;;;;;;;12.73;7.97;;;;;;;0.03;41.90;97074.66;4953451;29;20070;-77
2022/03/08 04:30:31;;;;;;;13.57;7.93;;;;;;;0.05;42.27;97062.56;4954045;29;20051;-78
2022/03/08 04:32:59;;;;;;;11.15;7.80;;;;;;;0.07;42.00;97065.84;4954067;29;20055;-78
2022/03/08 04:35:26;;;;;;;11.27;7.50;;;;;;;0.08;42.07;97062.34;4953643;29;20193;-78
2022/03/08 04:37:54;;;;;;;9.82;7.75;;;;;;;0.11;42.17;97062.13;4953438;29;20055;-77
2022/03/08 04:40:23;;;;;;;11.52;8.23;;;;;;;0.15;42.55;97054.13;4953958;29;20055;-77
2022/03/08 04:42:50;;;;;;;10.75;7.75;;;;;;;0.20;42.38;97064.06;4954253;29;20054;-77
2022/03/08 04:45:18;;;;;;;11.25;8.25;;;;;;;0.20;42.17;97062.31;4953793;29;20496;-77
2022/03/08 04:47:46;;;;;;;15.02;8.75;;;;;;;0.23;42.01;97065.59;4953082;29;20075;-78
2022/03/08 04:50:16;;;;;;;12.93;8.68;;;;;;;0.22;42.13;97062.22;4954146;29;20056;-77
2022/03/08 04:52:48;;;;;;;11.77;8.00;;;;;;;0.20;42.24;97064.88;4950154;28;20098;-77
2022/03/08 04:55:17;;;;;;;14.35;8.80;;;;;;;0.20;42.36;97062.31;4973439;28;20519;-77
2022/03/08 04:57:46;;;;;;;12.43;8.63;;;;;;;0.19;42.04;97064.97;4964021;28;20058;-77
2022/03/08 05:00:16;;;;;;;12.45;8.38;;;;;;;0.16;42.25;97060.06;4955040;29;20050;-77
2022/03/08 05:02:45;;;;;;;10.27;7.30;;;;;;;0.18;42.29;97068.50;4953834;29;20048;-77
2022/03/08 05:05:15;;;;;;;11.65;8.32;;;;;;;0.22;42.37;97072.50;4954502;29;20054;-77
2022/03/08 05:07:42;;;;;;;11.63;8.32;;;;;;;0.26;42.51;97071.31;4953292;29;20051;-77
2022/03/08 05:10:12;;;;;;;14.48;8.98;;;;;;;0.29;42.68;97065.19;4964234;28;20057;-77
2022/03/08 05:12:41;;;;;;;12.80;8.23;;;;;;;0.34;42.57;97065.69;4973005;28;20133;-77
2022/03/08 05:15:10;;;;;;;12.48;8.57;;;;;;;0.33;42.68;97070.00;4972742;28;20054;-77
2022/03/08 05:17:38;;;;;;;12.32;8.48;;;;;;;0.31;42.67;97060.78;4972115;28;20580;-77
2022/03/08 05:20:07;;;;;;;12.75;8.45;;;;;;;0.27;42.73;97052.44;4973409;28;20410;-76
2022/03/08 05:22:34;;;;;;;13.65;8.77;;;;;;;0.27;42.99;97059.34;4973240;28;20046;-77
2022/03/08 05:25:03;;;;;;;12.80;8.57;;;;;;;0.28;43.34;97056.66;4973746;28;20461;-77
2022/03/08 05:27:30;;;;;;;12.90;8.85;;;;;;;0.32;43.31;97049.56;4976163;28;20055;-77
2022/03/08 05:29:58;;;;;;;15.32;9.93;;;;;;;0.34;42.96;97051.09;4960534;28;20051;-76
2022/03/08 05:32:26;;;;;;;13.07;8.07;;;;;;;0.33;42.89;97041.78;4944884;29;20048;-78
2022/03/08 05:34:54;;;;;;;13.73;8.25;;;;;;;0.32;42.78;97042.69;4953175;29;20059;-77
2022/03/08 05:37:21;;;;;;;12.82;8.65;;;;;;;0.31;42.77;97041.06;4957141;29;20062;-77
2022/03/08 05:39:50;;;;;;;14.73;8.63;;;;;;;0.31;43.17;97041.06;4954755;29;20070;-77
2022/03/08 05:42:17;;;;;;;16.17;9.80;;;;;;;0.31;42.67;97048.75;4957827;29;20062;-75
2022/03/08 05:44:45;;;;;;;18.20;10.68;;;;;;;0.30;42.58;97056.53;4957940;29;20047;-76
2022/03/08 05:47:12;;;;;;;16.98;9.93;;;;;;;0.26;42.52;97061.06;4946683;29;20098;-77
2022/03/08 05:49:42;;;;;;;14.45;9.65;;;;;;;0.23;42.76;97060.47;4938903;29;20063;-76
2022/03/08 05:52:09;;;;;;;16.80;9.43;;;;;;;0.23;42.43;97070.72;4939366;29;20055;-77
2022/03/08 05:54:36;;;;;;;18.40;10.60;;;;;;;0.23;42.67;97070.72;4954452;29;20047;-76
2022/03/08 05:57:05;;;;;;;25.15;13.90;;;;;;;0.19;42.75;97076.06;4956523;29;20469;-78
2022/03/08 05:59:32;;;;;;;24.90;12.80;;;;;;;0.22;42.66;97085.31;4953894;29;20067;-78
2022/03/08 06:02:00;;;;;;;22.38;13.43;;;;;;;0.27;43.10;97088.38;4968972;29;20340;-79
2022/03/08 06:04:27;;;;;;;19.25;10.93;;;;;;;0.34;42.80;97092.16;4963520;29;20056;-76
2022/03/08 06:06:56;;;;;;;15.50;10.05;;;;;;;0.30;42.49;97093.28;4953118;29;20055;-78
2022/03/08 06:09:24;;;;;;;16.08;9.63;;;;;;;0.30;42.70;97098.41;4960699;29;20525;-77
2022/03/08 06:11:51;;;;;;;18.05;10.35;;;;;;;0.32;42.76;97096.56;4959730;29;20051;-77
2022/03/08 06:14:19;;;;;;;18.33;10.63;;;;;;;0.32;42.73;97099.13;4957569;29;20072;-78
2022/03/08 06:16:46;;;;;;;21.38;10.48;;;;;;;0.27;42.19;97097.81;4951005;29;20497;-77
2022/03/08 06:19:14;;;;;;;17.63;10.05;;;;;;;0.25;42.46;97095.34;4940099;29;20430;-77
2022/03/08 06:21:41;;;;;;;18.70;10.30;;;;;;;0.26;42.32;97099.53;4942124;29;20051;-77
2022/03/08 06:24:11;;;;;;;14.45;8.75;;;;;;;0.29;42.39;97096.78;4954490;29;20058;-76
2022/03/08 06:26:39;;;;;;;14.68;9.43;;;;;;;0.31;42.60;97094.94;4937211;29;20066;-77
2022/03/08 06:29:12;;;;;;;18.33;10.27;;;;;;;0.36;42.91;97092.88;4939067;29;20058;-77
2022/03/08 06:31:39;;;;;;;13.00;8.77;;;;;;;0.40;42.41;97084.03;4939728;29;20060;-80
2022/03/08 06:34:07;;;;;;;18.85;10.15;;;;;;;0.49;42.49;97092.03;4939096;29;20078;-77
2022/03/08 06:36:36;;;;;;;13.77;9.27;;;;;;;0.57;42.53;97088.00;4950840;28;20530;-77
2022/03/08 06:39:04;;;;;;;12.70;8.25;;;;;;;0.65;42.13;97077.19;4942174;29;20043;-77
2022/03/08 06:41:33;;;;;;;11.10;8.10;;;;;;;0.75;42.71;97078.19;4955895;29;20047;-77
2022/03/08 06:44:01;;;;;;;12.50;8.30;;;;;;;0.87;41.85;97080.78;4955851;29;20051;-76
2022/03/08 06:46:29;;;;;;;12.13;8.50;;;;;;;0.98;42.39;97073.13;4954749;29;20117;-77
2022/03/08 06:48:56;;;;;;;12.85;8.57;;;;;;;1.12;41.81;97070.41;4954084;29;20059;-76
2022/03/08 06:51:24;;;;;;;11.93;9.13;;;;;;;1.28;41.90;97077.00;4943526;29;20511;-76
2022/03/08 06:53:51;;;;;;;12.32;8.68;;;;;;;1.47;41.94;97084.19;4937448;29;20099;-77
2022/03/08 06:56:19;;;;;;;14.77;8.75;;;;;;;1.61;41.38;97087.34;4958639;29;20043;-77
2022/03/08 06:58:48;;;;;;;13.95;9.70;;;;;;;1.77;41.40;97091.34;4970969;29;20047;-77
2022/03/08 07:01:15;;;;;;;13.40;9.25;;;;;;;1.93;41.24;97091.03;4960007;29;20087;-76
2022/03/08 07:03:43;;;;;;;13.95;8.60;;;;;;;2.10;41.18;97084.59;4952800;29;20043;-75
2022/03/08 07:06:11;;;;;;;13.43;9.60;;;;;;;2.30;40.73;97089.06;4954023;29;20482;-77
2022/03/08 07:08:38;;;;;;;11.65;8.23;;;;;;;2.45;40.57;97093.03;4939968;29;20047;-77
2022/03/08 07:11:06;;;;;;;13.63;9.18;;;;;;;2.58;40.82;97092.06;4948918;29;20430;-77
2022/03/08 07:13:33;;;;;;;12.23;7.90;;;;;;;2.74;40.06;97095.06;4949512;29;20097;-78
2022/03/08 07:16:03;;;;;;;15.38;8.35;;;;;;;2.80;39.76;97086.88;4954810;29;20071;-76
2022/03/08 07:18:31;;;;;;;13.07;8.23;;;;;;;2.86;39.67;97091.53;4942610;29;20058;-77
2022/03/08 07:21:00;;;;;;;11.63;8.73;;;;;;;3.02;39.62;97100.63;4950208;29;20530;-77
2022/03/08 07:23:28;;;;;;;9.55;7.57;;;;;;;3.20;39.64;97094.00;4955884;29;20134;-77
2022/03/08 07:25:55;;;;;;;11.75;8.43;;;;;;;3.37;39.34;97095.22;4940277;29;20056;-76
2022/03/08 07:28:23;;;;;;;11.18;8.38;;;;;;;3.56;39.51;97096.28;4935844;29;20052;-76
2022/03/08 07:30:59;;;;;;;14.63;8.23;;;;;;;3.78;39.32;97097.91;4944949;29;20503;-77
2022/03/08 07:33:29;;;;;;;8.95;7.53;;;;;;;4.01;38.79;97094.25;4944443;29;20069;-78
2022/03/08 07:35:57;;;;;;;10.25;8.50;;;;;;;4.22;38.24;97090.78;4949869;23;1113703;-78
2022/03/08 07:38:24;;;;;;;11.18;8.60;;;;;;;4.42;39.02;97087.34;4935143;29;20107;-77
2022/03/08 07:40:52;;;;;;;11.63;8.00;;;;;;;4.66;38.10;97099.13;4935844;29;20070;-77
2022/03/08 07:43:19;;;;;;;11.15;7.88;;;;;;;4.79;38.04;97097.09;4935150;29;20056;-77
2022/03/08 07:45:47;;;;;;;13.05;8.98;;;;;;;4.97;37.83;97101.63;4931319;29;20055;-78
2022/03/08 07:48:14;;;;;;;11.98;8.02;;;;;;;5.13;37.48;97105.28;4920264;29;20047;-76
2022/03/08 07:50:43;;;;;;;10.18;8.65;;;;;;;5.30;36.95;97103.00;4922114;29;20055;-78
2022/03/08 07:53:11;;;;;;;12.32;8.48;;;;;;;5.46;37.16;97097.28;4927455;29;20059;-78
2022/03/08 07:55:38;;;;;;;10.05;8.40;;;;;;;5.61;37.18;97103.66;4919965;29;20063;-77
2022/03/08 07:58:11;;;;;;;10.85;7.88;;;;;;;5.80;36.78;97105.41;4933783;29;20418;-78
2022/03/08 08:00:39;;;;;;;;;;;;;;;6.05;36.83;97108.38;4920127;29;20060;-78
2022/03/08 08:03:07;;;;;;;12.30;7.97;;;;;;;6.27;36.88;97102.03;4931205;29;19930;-77
2022/03/08 08:05:35;;;;;;;10.20;7.43;;;;;;;6.45;36.42;97095.16;4916554;29;20063;-76
2022/03/08 08:08:06;;;;;;;11.57;7.55;;;;;;;6.58;35.71;97098.22;4917420;29;20048;-77
2022/03/08 08:10:34;;;;;;;8.70;7.25;;;;;;;6.75;35.93;97103.56;4916530;29;20060;-78
2022/03/08 08:13:02;;;;;;;8.20;6.75;;;;;;;6.95;34.76;97092.16;4928845;29;20074;-77
2022/03/08 08:15:30;;;;;;;10.82;7.45;;;;;;;7.03;34.39;97093.19;4926105;29;20395;-77
2022/03/08 08:17:57;;;;;;;9.73;7.25;;;;;;;7.04;33.93;97095.63;4923643;29;20055;-77
2022/03/08 08:20:25;;;;;;;8.15;6.55;;;;;;;7.07;33.53;97095.31;4916413;29;20056;-78
2022/03/08 08:22:52;;;;;;;12.35;7.18;;;;;;;7.16;33.82;97101.41;4924567;29;20515;-78
2022/03/08 08:25:22;;;;;;;9.30;6.70;;;;;;;7.34;33.11;97093.63;4916014;29;20075;-77
2022/03/08 08:27:49;;;;;;;8.90;6.15;;;;;;;7.56;33.01;97097.53;4915557;29;20055;-78
2022/03/08 08:30:18;;;;;;;9.23;6.35;;;;;;;7.76;33.04;97101.59;4916038;29;20040;-78
2022/03/08 08:32:45;;;;;;;9.80;6.05;;;;;;;8.00;32.30;97102.69;4916951;29;20533;-78
2022/03/08 08:35:13;;;;;;;7.75;6.32;;;;;;;8.18;31.29;97090.50;4916080;29;20048;-78
2022/03/08 08:37:40;;;;;;;11.57;5.82;;;;;;;8.25;31.23;97095.88;4914913;29;20044;-78
2022/03/08 08:40:09;;;;;;;9.23;6.68;;;;;;;8.36;30.99;97094.78;4915906;29;20056;-78
2022/03/08 08:42:38;;;;;;;10.57;6.03;;;;;;;8.54;30.75;97098.16;4915159;29;20067;-77
2022/03/08 08:45:07;;;;;;;13.02;6.85;;;;;;;8.71;30.17;97103.41;4915689;29;20049;-78
2022/03/08 08:47:35;;;;;;;11.43;6.13;;;;;;;8.71;30.07;97106.03;4919690;29;20059;-78
2022/03/08 08:50:03;;;;;;;7.43;5.43;;;;;;;8.69;29.78;97105.38;4919957;29;20064;-78
2022/03/08 08:52:31;;;;;;;9.63;5.65;;;;;;;8.66;29.54;97099.50;4947276;29;20063;-78
2022/03/08 08:54:59;;;;;;;15.52;5.53;;;;;;;8.61;29.56;97100.94;4952763;29;20051;-79
2022/03/08 08:57:26;;;;;;;21.50;6.28;;;;;;;8.64;30.20;97111.84;4934485;29;20063;-80
2022/03/08 08:59:55;;;;;;;7.60;5.63;;;;;;;8.76;29.49;97111.56;4917205;29;20538;-79
2022/03/08 09:02:22;;;;;;;9.15;5.78;;;;;;;8.89;29.55;97109.31;4941817;29;20052;-78
2022/03/08 09:04:50;;;;;;;5.53;4.95;;;;;;;9.13;29.17;97113.75;4944332;29;20044;-78
2022/03/08 09:07:18;;;;;;;12.18;7.78;;;;;;;9.31;28.29;97111.03;4937803;29;20059;-77
2022/03/08 09:09:47;;;;;;;6.57;4.85;;;;;;;9.40;28.60;97102.25;4933903;29;20055;-79
2022/03/08 09:12:14;;;;;;;9.70;4.13;;;;;;;9.53;28.38;97109.56;4938968;29;20514;-78
2022/03/08 09:14:42;;;;;;;40.08;5.82;;;;;;;9.53;27.93;97106.16;4919049;29;20056;-78
2022/03/08 09:17:11;;;;;;;7.45;4.35;;;;;;;9.46;27.97;97099.00;4918555;29;20060;-78
2022/03/08 09:19:38;;;;;;;5.45;4.57;;;;;;;9.62;27.83;97106.00;4918943;29;20048;-79
2022/03/08 09:22:06;;;;;;;8.68;4.65;;;;;;;9.95;28.33;97097.34;4920520;29;20071;-78
2022/03/08 09:24:35;;;;;;;6.13;3.95;;;;;;;10.51;27.60;97087.78;4925195;29;20068;-79
2022/03/08 09:27:03;;;;;;;10.20;4.15;;;;;;;11.02;26.64;97098.63;4919329;29;20147;-79
2022/03/08 09:29:31;;;;;;;6.53;3.75;;;;;;;11.53;26.60;97085.88;4934709;29;20058;-78
2022/03/08 09:31:59;;;;;;;4.75;3.60;;;;;;;12.14;26.10;97064.09;4934816;29;20056;-78
2022/03/08 09:34:28;;;;;;;5.85;3.70;;;;;;;12.62;24.46;97095.94;4935424;29;20051;-78
2022/03/08 09:36:56;;;;;;;6.18;4.13;;;;;;;12.83;24.24;97087.31;4931469;29;20056;-79
2022/03/08 09:39:23;;;;;;;7.57;4.15;;;;;;;12.98;24.14;97080.22;4919201;29;20063;-79
2022/03/08 09:41:55;;;;;;;5.95;3.60;;;;;;;13.08;23.78;97072.09;4924489;29;20052;-78
2022/03/08 09:44:23;;;;;;;10.80;4.00;;;;;;;13.19;23.72;97092.53;4922122;29;20058;-79
2022/03/08 09:46:51;;;;;;;6.93;3.60;;;;;;;13.30;23.16;97085.22;4922966;29;20056;-80
2022/03/08 09:49:19;;;;;;;6.43;4.20;;;;;;;13.42;23.09;97078.47;4936372;29;20413;-78
2022/03/08 09:51:48;;;;;;;6.18;3.47;;;;;;;13.51;22.45;97090.47;4926233;29;20395;-78
2022/03/08 09:54:15;;;;;;;8.70;3.65;;;;;;;13.54;22.77;97076.97;4925105;29;20060;-78
2022/03/08 09:56:43;;;;;;;5.00;3.47;;;;;;;13.82;22.67;97084.06;4936945;29;20051;-79
2022/03/08 09:59:10;;;;;;;4.82;3.97;;;;;;;14.20;22.22;97081.09;4922789;29;20060;-78
2022/03/08 10:01:38;;;;;;;4.28;3.67;;;;;;;14.68;21.98;97080.38;4930229;29;20055;-79
2022/03/08 10:04:07;;;;;;;4.00;3.47;;;;;;;15.14;20.99;97075.25;4937220;29;20052;-79
2022/03/08 10:06:57;;;;;;;4.47;3.38;;;;;;;15.66;20.88;97065.81;4936414;29;20056;-79
2022/03/08 10:09:26;;;;;;;5.95;3.75;;;;;;;16.38;20.33;97075.69;4932577;29;20060;-79
2022/03/08 10:11:57;;;;;;;3.65;3.25;;;;;;;17.09;19.06;97082.69;4918276;29;20052;-78
2022/03/08 10:14:36;;;;;;;5.55;3.85;;;;;;;17.85;18.06;97075.72;4918523;29;20048;-78
2022/03/08 10:17:04;;;;;;;5.13;3.53;;;;;;;18.64;17.81;97078.59;4931717;29;20454;-79
2022/03/08 10:19:31;;;;;;;7.85;3.58;;;;;;;19.22;17.10;97079.91;4933753;29;20059;-79
2022/03/08 10:22:00;;;;;;;4.40;3.53;;;;;;;19.89;16.21;97079.75;4926889;29;20048;-78
2022/03/08 10:24:31;;;;;;;6.55;3.70;;;;;;;20.56;15.37;97076.72;4918300;29;20528;-78
2022/03/08 10:27:00;;;;;;;7.60;3.58;;;;;;;21.25;15.25;97067.97;4918752;29;20048;-79
2022/03/08 10:29:30;;;;;;;4.25;3.38;;;;;;;21.85;14.54;97069.25;4922434;29;20055;-80
2022/03/08 10:32:06;;;;;;;5.90;4.00;;;;;;;22.51;13.77;97059.59;4923720;29;20052;-78
2022/03/08 10:34:35;;;;;;;6.85;3.53;;;;;;;23.44;13.70;97064.88;4923278;29;20132;-79
2022/03/08 10:37:09;;;;;;;5.35;3.75;;;;;;;24.35;12.72;97051.66;4921076;29;20067;-80
2022/03/08 10:39:48;;;;;;;5.40;3.85;;;;;;;25.18;12.28;97064.25;4937544;29;20062;-79
2022/03/08 10:42:19;;;;;;;5.07;3.85;;;;;;;25.55;11.70;97068.63;4936583;29;20597;-78
2022/03/08 10:44:47;;;;;;;5.93;3.30;;;;;;;25.86;11.70;97062.19;4936806;29;20079;-80
2022/03/08 10:47:16;;;;;;;4.53;3.00;;;;;;;25.94;11.52;97065.44;4936892;29;20059;-80
2022/03/08 10:49:52;;;;;;;4.45;3.35;;;;;;;26.09;11.28;97062.75;4926468;29;20112;-80
2022/03/08 10:52:29;;;;;;;7.95;3.30;;;;;;;26.11;10.88;97065.94;4925833;29;20123;-80
2022/03/08 10:55:09;;;;;;;4.40;2.92;;;;;;;26.17;10.62;97064.03;4937265;29;20059;-78
2022/03/08 10:57:38;;;;;;;6.43;3.35;;;;;;;25.97;10.97;97060.34;4934208;29;20052;-78
2022/03/08 11:00:15;;;;;;;3.78;2.70;;;;;;;25.73;11.01;97052.03;4936221;29;20055;-79
2022/03/08 11:02:51;;;;;;;2.88;2.50;;;;;;;25.83;11.21;97054.72;4934673;29;20052;-80
2022/03/08 11:05:21;;;;;;;4.68;2.85;;;;;;;25.89;11.33;97050.22;4918717;29;20107;-80
2022/03/08 11:07:50;;;;;;;4.80;3.60;;;;;;;24.80;11.53;97036.97;4929885;29;20044;-80
2022/03/08 11:10:19;;;;;;;5.32;3.70;;;;;;;23.37;12.32;97034.97;4925406;29;20090;-79
2022/03/08 11:12:48;;;;;;;6.95;3.25;;;;;;;22.13;13.54;97031.16;4932293;29;20082;-78
2022/03/08 11:15:17;;;;;;;5.53;3.28;;;;;;;21.18;14.31;97034.41;4928634;29;20066;-80
2022/03/08 11:17:47;;;;;;;2.83;2.55;;;;;;;20.26;14.38;97042.44;4935618;29;20052;-80
2022/03/08 11:20:16;;;;;;;4.80;3.17;;;;;;;19.67;14.65;97034.47;4937674;29;20062;-77
2022/03/08 11:22:45;;;;;;;6.85;3.35;;;;;;;19.33;15.95;97029.69;4927678;29;20127;-78
2022/03/08 11:25:16;;;;;;;8.10;3.25;;;;;;;19.29;15.39;97022.44;4921773;29;20522;-81
2022/03/08 11:28:05;;;;;;;3.22;2.92;;;;;;;19.75;16.47;97026.22;4928993;29;20055;-76
2022/03/08 11:30:43;;;;;;;4.57;3.70;;;;;;;20.57;14.18;97020.84;4934276;29;20048;-80
2022/03/08 11:33:18;;;;;;;5.47;3.05;;;;;;;20.89;13.43;97016.94;4938600;29;20064;-80
2022/03/08 11:35:53;;;;;;;3.42;2.95;;;;;;;20.64;13.55;97018.06;4947792;29;20044;-81
2022/03/08 11:38:21;;;;;;;3.70;2.67;;;;;;;20.07;14.38;97010.78;5012988;23;20090;-80
2022/03/08 11:40:53;;;;;;;3.67;2.75;;;;;;;19.49;14.60;97007.06;4965096;29;20047;-80
2022/03/08 11:43:36;;;;;;;4.10;3.25;;;;;;;18.96;15.07;97007.88;4970715;28;20425;-80
2022/03/08 11:46:15;;;;;;;4.43;3.45;;;;;;;18.45;14.65;97012.53;4969194;28;20043;-80
2022/03/08 11:48:53;;;;;;;4.20;2.97;;;;;;;17.97;14.73;97010.63;4960853;29;20130;-80
2022/03/08 11:51:23;;;;;;;3.33;2.42;;;;;;;17.56;15.44;97014.66;4973958;28;20047;-80
2022/03/08 11:54:01;;;;;;;3.80;2.58;;;;;;;17.33;16.03;97003.88;4975442;28;20054;-77
2022/03/08 11:56:47;;;;;;;3.65;2.63;;;;;;;17.30;17.49;97013.81;4965907;28;20055;-80
2022/03/08 11:59:19;;;;;;;2.90;2.58;;;;;;;17.36;16.98;97003.44;4972496;28;20062;-79
2022/03/08 12:02:04;;;;;;;8.40;3.10;;;;;;;17.26;16.05;97007.38;4928586;28;20088;-80
2022/03/08 12:04:44;;;;;;;4.40;2.70;;;;;;;16.92;15.39;97005.97;4943310;29;20063;-80
2022/03/08 12:07:26;;;;;;;6.88;2.80;;;;;;;16.72;15.92;97000.78;4937283;29;20090;-80
2022/03/08 12:10:24;;;;;;;6.68;5.30;;;;;;;17.25;16.22;96982.03;4934362;29;20136;-80
2022/03/08 12:13:14;;;;;;;10.60;6.70;;;;;;;17.94;15.66;96989.97;4934806;29;20123;-79
2022/03/08 12:16:12;;;;;;;14.20;7.60;;;;;;;18.19;14.81;97004.94;4934877;29;20052;-80
2022/03/08 12:18:41;;;;;;;9.07;5.80;;;;;;;18.30;15.17;96983.88;4934742;29;20047;-80
2022/03/08 12:21:35;;;;;;;11.35;5.93;;;;;;;18.60;14.20;96991.03;4934792;29;20051;-80
2022/03/08 12:24:05;;;;;;;4.38;3.72;;;;;;;18.17;14.48;97004.34;4936164;29;20052;-80
2022/03/08 12:26:36;;;;;;;7.00;4.63;;;;;;;16.78;15.53;96996.50;4935562;29;20059;-80
2022/03/08 12:29:27;;;;;;;15.48;6.90;;;;;;;15.19;17.09;96994.00;4935743;29;20056;-80
2022/03/08 12:32:26;;;;;;;9.35;6.47;;;;;;;14.10;18.01;96994.03;4951199;29;20059;-80
2022/03/08 12:34:56;;;;;;;4.82;4.32;;;;;;;13.48;18.60;96995.69;4954243;28;20078;-80
2022/03/08 12:37:39;;;;;;;5.55;3.95;;;;;;;13.10;19.29;96988.91;4940902;29;20052;-79
2022/03/08 12:40:09;;;;;;;4.78;4.13;;;;;;;12.82;19.59;96995.88;4942244;29;20063;-80
2022/03/08 12:42:38;;;;;;;5.55;4.53;;;;;;;12.55;19.95;96996.41;4941881;29;20063;-80
2022/03/08 12:45:25;;;;;;;8.32;4.80;;;;;;;12.25;20.42;96990.41;4943371;29;20072;-80
2022/03/08 12:47:55;;;;;;;5.82;4.88;;;;;;;12.02;20.46;97005.38;4940309;29;20060;-79
2022/03/08 12:50:25;;;;;;;5.68;4.57;;;;;;;11.63;20.61;96985.50;4944594;28;20079;-80
2022/03/08 12:52:54;;;;;;;8.00;5.43;;;;;;;11.27;21.38;96996.63;4958710;29;20138;-80
2022/03/08 12:55:24;;;;;;;8.23;5.60;;;;;;;11.14;22.20;96987.56;4943184;29;20494;-79
2022/03/08 12:57:54;;;;;;;5.53;4.90;;;;;;;11.18;21.89;96992.47;4947891;29;20055;-82
2022/03/08 13:00:35;;;;;;;6.55;5.32;;;;;;;11.07;21.90;96989.28;4942519;29;20062;-82
2022/03/08 13:03:04;;;;;;;5.93;4.57;;;;;;;10.89;22.32;96989.56;4938831;29;20052;-83
2022/03/08 13:05:34;;;;;;;7.82;5.57;;;;;;;10.71;22.49;96996.84;4939059;29;20098;-83
2022/03/08 13:08:03;;;;;;;7.07;5.35;;;;;;;10.55;22.86;96995.16;4943351;29;20047;-82
2022/03/08 13:10:31;;;;;;;8.93;5.57;;;;;;;10.51;22.90;96996.47;4941391;29;20403;-82
2022/03/08 13:13:12;;;;;;;7.07;6.00;;;;;;;10.43;23.22;96993.91;4939818;29;20047;-82
2022/03/08 13:15:41;;;;;;;7.63;5.30;;;;;;;10.22;23.29;96976.22;4939768;29;20055;-82
2022/03/08 13:18:09;;;;;;;6.95;5.93;;;;;;;10.06;23.63;96992.75;4944481;29;20521;-82
2022/03/08 13:20:39;;;;;;;7.07;5.30;;;;;;;9.99;23.89;96978.75;4940829;29;20449;-83